Check out our new BloomSky Weather System.

Active alerts


No alerts


Thunder radar  blitzortung!


Rain radar more information rain snow radar


Visit our other weather sites:

Template documentation
and downloads

And another site



Weather Underground History page Text

Daily Summary for May 5, 2017 Units:  Metric    English   Both
« Previous Day
Next Day »
Daily Weekly Monthly Yearly Custom
  High: Low: Average:
Temperature: 26.8 °C 11.8 °C 19.8 °C
Dew Point: 11 °C 6.9 °C 9.1 °C
Humidity: 85 % 30 % 54 %
Wind Speed: 19.3 km/h 0 km/h 4 km/h
Wind Gust: 27.4 km/h - -
Wind:- - WNW
Pressure: 1017.2 hPa 1012.8 hPa -
Precipitation: 0 mm    
Historical Graphs
 
 
Tabular Data for May 5, 2017
Time Temperature Dew Point Pressure Wind Wind Speed Wind Gust Humidity Rainfall Rate (Hourly)
00:02 14.9 °C 10.7 °C 1016.5 hPa Calm     76 % 0 mm
00:07 14.9 °C 10.7 °C 1016.5 hPa Calm     76 % 0 mm
00:12 14.8 °C 10.8 °C 1016.5 hPa Calm     77 % 0 mm
00:17 14.7 °C 10.7 °C 1016.5 hPa Calm     77 % 0 mm
00:22 14.6 °C 10.6 °C 1016.5 hPa Calm     77 % 0 mm
00:27 14.6 °C 10.6 °C 1016.5 hPa Calm     77 % 0 mm
00:32 14.5 °C 10.7 °C 1016.5 hPa Calm   1.6 km/h 78 % 0 mm
00:37 14.4 °C 10.6 °C 1016.5 hPa Calm   1.6 km/h 78 % 0 mm
00:42 14.3 °C 10.3 °C 1016.5 hPa Calm   1.6 km/h 77 % 0 mm
00:47 14.2 °C 10.4 °C 1016.5 hPa Calm     78 % 0 mm
00:52 14.2 °C 10.6 °C 1016.5 hPa Calm     79 % 0 mm
00:57 14.1 °C 10.5 °C 1016.5 hPa Calm     79 % 0 mm
01:02 14.1 °C 10.7 °C 1016.5 hPa Calm   1.6 km/h 80 % 0 mm
01:07 14.1 °C 10.5 °C 1016.5 hPa Calm   1.6 km/h 79 % 0 mm
01:12 14.1 °C 10.5 °C 1016.5 hPa Calm   1.6 km/h 79 % 0 mm
01:17 13.9 °C 10.3 °C 1016.5 hPa Calm   1.6 km/h 79 % 0 mm
01:22 13.8 °C 10.2 °C 1016.1 hPa Calm   1.6 km/h 79 % 0 mm
01:27 13.7 °C 10.1 °C 1016.1 hPa Calm     79 % 0 mm
01:28 13.7 °C 10.1 °C 1016.1 hPa Calm     79 % 0 mm
02:56 12.7 °C 9.7 °C 1015.5 hPa Calm   1.6 km/h 82 % 0 mm
03:01 12.6 °C 9.4 °C 1015.5 hPa Calm   1.6 km/h 81 % 0 mm
03:06 12.5 °C 9.5 °C 1015.5 hPa Calm   1.6 km/h 82 % 0 mm
03:11 12.4 °C 9.4 °C 1015.5 hPa Calm     82 % 0 mm
03:16 12.4 °C 9.4 °C 1015.5 hPa Calm     82 % 0 mm
03:21 12.4 °C 9.6 °C 1015.5 hPa Calm     83 % 0 mm
03:26 12.5 °C 9.7 °C 1015.5 hPa Calm   1.6 km/h 83 % 0 mm
03:31 12.6 °C 9.8 °C 1015.5 hPa Calm   1.6 km/h 83 % 0 mm
03:36 12.6 °C 9.6 °C 1015.5 hPa Calm   1.6 km/h 82 % 0 mm
03:41 12.7 °C 9.7 °C 1015.5 hPa Calm   1.6 km/h 82 % 0 mm
03:46 12.6 °C 9.6 °C 1015.5 hPa Calm   1.6 km/h 82 % 0 mm
03:51 12.6 °C 9.6 °C 1015.5 hPa Calm   1.6 km/h 82 % 0 mm
03:56 12.4 °C 9.4 °C 1015.5 hPa Calm   1.6 km/h 82 % 0 mm
04:01 12.3 °C 9.3 °C 1015.5 hPa Calm   1.6 km/h 82 % 0 mm
04:06 12.2 °C 9.2 °C 1015.5 hPa Calm     82 % 0 mm
04:11 12.1 °C 9.3 °C 1015.1 hPa Calm   1.6 km/h 83 % 0 mm
04:16 12 °C 9.4 °C 1015.5 hPa Calm   1.6 km/h 84 % 0 mm
04:21 12.1 °C 9.5 °C 1015.5 hPa Calm   1.6 km/h 84 % 0 mm
04:26 12 °C 9.4 °C 1015.5 hPa Calm   1.6 km/h 84 % 0 mm
04:31 12 °C 9.4 °C 1015.5 hPa Calm   1.6 km/h 84 % 0 mm
04:36 12 °C 9.4 °C 1015.5 hPa Calm   1.6 km/h 84 % 0 mm
04:41 11.9 °C 9.3 °C 1015.5 hPa Calm   1.6 km/h 84 % 0 mm
04:46 11.9 °C 9.3 °C 1015.5 hPa Calm   1.6 km/h 84 % 0 mm
04:51 11.9 °C 9.5 °C 1015.5 hPa Calm   1.6 km/h 85 % 0 mm
04:53 11.9 °C 9.5 °C 1015.5 hPa Calm   1.6 km/h 85 % 0 mm
04:58 11.9 °C 9.3 °C 1015.5 hPa Calm   1.6 km/h 84 % 0 mm
05:03 11.9 °C 9.3 °C 1015.5 hPa Calm   1.6 km/h 84 % 0 mm
05:08 11.8 °C 9.4 °C 1015.5 hPa Calm   1.6 km/h 85 % 0 mm
05:13 11.8 °C 9.4 °C 1015.5 hPa Calm   1.6 km/h 85 % 0 mm
05:18 11.8 °C 9.4 °C 1015.5 hPa Calm   1.6 km/h 85 % 0 mm
05:23 12 °C 9.4 °C 1015.5 hPa Calm   3.2 km/h 84 % 0 mm
05:28 12.3 °C 9.5 °C 1015.5 hPa Calm   3.2 km/h 83 % 0 mm
05:33 12.5 °C 9.5 °C 1015.5 hPa North 1.6 km/h 4.8 km/h 82 % 0 mm
05:38 12.6 °C 9.4 °C 1015.5 hPa Calm   4.8 km/h 81 % 0 mm
05:43 12.7 °C 9.3 °C 1015.5 hPa NNW 1.6 km/h 4.8 km/h 80 % 0 mm
05:48 12.7 °C 9.3 °C 1015.5 hPa WNW 1.6 km/h 4.8 km/h 80 % 0 mm
05:54 12.7 °C 9.3 °C 1015.5 hPa NNW 1.6 km/h 4.8 km/h 80 % 0 mm
05:59 12.7 °C 9.2 °C 1015.5 hPa Calm   4.8 km/h 79 % 0 mm
06:04 12.7 °C 9.2 °C 1015.5 hPa Calm   4.8 km/h 79 % 0 mm
06:09 12.7 °C 9.2 °C 1015.5 hPa Calm   4.8 km/h 79 % 0 mm
06:14 12.6 °C 9.1 °C 1015.5 hPa Calm   3.2 km/h 79 % 0 mm
06:19 12.6 °C 9.1 °C 1015.5 hPa Calm   3.2 km/h 79 % 0 mm
06:24 12.5 °C 9 °C 1015.5 hPa Calm   3.2 km/h 79 % 0 mm
06:29 12.4 °C 8.9 °C 1015.8 hPa Calm   3.2 km/h 79 % 0 mm
06:34 12.4 °C 9 °C 1015.8 hPa Calm   3.2 km/h 80 % 0 mm
06:39 12.4 °C 9 °C 1015.8 hPa Calm   3.2 km/h 80 % 0 mm
06:44 12.4 °C 8.9 °C 1015.8 hPa Calm   3.2 km/h 79 % 0 mm
06:49 12.5 °C 9 °C 1016.1 hPa Calm   3.2 km/h 79 % 0 mm
06:54 12.4 °C 8.9 °C 1016.1 hPa Calm   3.2 km/h 79 % 0 mm
06:59 12.5 °C 9 °C 1016.1 hPa SW 3.2 km/h 3.2 km/h 79 % 0 mm
07:04 12.6 °C 9.1 °C 1016.1 hPa WNW 4.8 km/h 4.8 km/h 79 % 0 mm
07:09 12.7 °C 9 °C 1016.1 hPa Calm   6.4 km/h 78 % 0 mm
07:14 12.8 °C 9.1 °C 1016.1 hPa NW 1.6 km/h 6.4 km/h 78 % 0 mm
07:19 13.1 °C 9.2 °C 1016.5 hPa Calm   6.4 km/h 77 % 0 mm
07:24 13.4 °C 9.4 °C 1016.5 hPa West 3.2 km/h 6.4 km/h 77 % 0 mm
07:29 13.7 °C 9.3 °C 1016.5 hPa Calm   8 km/h 75 % 0 mm
07:34 14.1 °C 9.5 °C 1016.5 hPa WNW 3.2 km/h 8 km/h 74 % 0 mm
07:39 14.3 °C 9.7 °C 1016.5 hPa Calm   8 km/h 74 % 0 mm
07:44 14.6 °C 9.8 °C 1016.5 hPa Calm   4.8 km/h 73 % 0 mm
07:49 14.9 °C 9.9 °C 1016.8 hPa Calm   4.8 km/h 72 % 0 mm
07:54 15.1 °C 9.9 °C 1016.8 hPa West 1.6 km/h 4.8 km/h 71 % 0 mm
07:59 15.3 °C 9.9 °C 1016.8 hPa WNW 4.8 km/h 4.8 km/h 70 % 0 mm
08:04 15.5 °C 9.8 °C 1016.8 hPa NW 3.2 km/h 6.4 km/h 69 % 0 mm
08:09 15.8 °C 10.1 °C 1016.8 hPa NW 6.4 km/h 8 km/h 69 % 0 mm
08:14 16 °C 9.9 °C 1016.8 hPa NW 1.6 km/h 8 km/h 67 % 0 mm
08:19 16.3 °C 10.2 °C 1016.8 hPa WSW 3.2 km/h 8 km/h 67 % 0 mm
08:24 16.6 °C 10.2 °C 1016.8 hPa NW 8 km/h 8 km/h 66 % 0 mm
08:29 16.7 °C 10.1 °C 1016.8 hPa NNW 4.8 km/h 8 km/h 65 % 0 mm
08:34 16.9 °C 9.8 °C 1016.8 hPa WNW 8 km/h 8 km/h 63 % 0 mm
08:39 17.1 °C 10.2 °C 1016.8 hPa West 3.2 km/h 14.5 km/h 64 % 0 mm
08:40 17.1 °C 10 °C 1017.2 hPa NNW 1.6 km/h 14.5 km/h 63 % 0 mm
08:45 17.4 °C 10.3 °C 1017.2 hPa WNW 1.6 km/h 14.5 km/h 63 % 0 mm
08:50 17.6 °C 10 °C 1016.8 hPa NW 6.4 km/h 11.3 km/h 61 % 0 mm
08:55 17.7 °C 10.3 °C 1017.2 hPa NW 8 km/h 12.9 km/h 62 % 0 mm
09:00 17.9 °C 10 °C 1017.2 hPa NNW 4.8 km/h 12.9 km/h 60 % 0 mm
09:05 18.2 °C 10.1 °C 1017.2 hPa NW 3.2 km/h 12.9 km/h 59 % 0 mm
09:10 18.4 °C 10 °C 1017.2 hPa NW 8 km/h 11.3 km/h 58 % 0 mm
09:15 18.6 °C 9.9 °C 1017.2 hPa NW 4.8 km/h 14.5 km/h 57 % 0 mm
09:20 18.8 °C 10.1 °C 1017.2 hPa West 1.6 km/h 14.5 km/h 57 % 0 mm
09:25 19.1 °C 10.4 °C 1017.2 hPa NNW 3.2 km/h 14.5 km/h 57 % 0 mm
09:30 19.4 °C 10.1 °C 1017.2 hPa NW 4.8 km/h 12.9 km/h 55 % 0 mm
09:33 19.6 °C 10.6 °C 1017.2 hPa NW 3.2 km/h 12.9 km/h 56 % 0 mm
09:38 20.1 °C 11 °C 1017.2 hPa North 6.4 km/h 12.9 km/h 56 % 0 mm
09:43 20.4 °C 10.5 °C 1017.2 hPa NW 1.6 km/h 12.9 km/h 53 % 0 mm
09:48 20.4 °C 10.8 °C 1017.2 hPa WSW 4.8 km/h 12.9 km/h 54 % 0 mm
09:53 20.7 °C 10.2 °C 1017.2 hPa NNW 3.2 km/h 12.9 km/h 51 % 0 mm
09:58 20.8 °C 10.3 °C 1017.2 hPa NW 4.8 km/h 12.9 km/h 51 % 0 mm
10:03 20.9 °C 10.4 °C 1017.2 hPa WNW 4.8 km/h 11.3 km/h 51 % 0 mm
10:08 21.1 °C 10 °C 1017.2 hPa NNW 6.4 km/h 11.3 km/h 49 % 0 mm
10:13 21.4 °C 9.6 °C 1017.2 hPa Calm   9.7 km/h 47 % 0 mm
10:18 21.6 °C 9.2 °C 1017.2 hPa WNW 11.3 km/h 12.9 km/h 45 % 0 mm
10:23 21.6 °C 9.8 °C 1017.2 hPa NW 4.8 km/h 12.9 km/h 47 % 0 mm
10:28 21.9 °C 10.4 °C 1017.2 hPa NW 1.6 km/h 12.9 km/h 48 % 0 mm
10:33 22.4 °C 9.5 °C 1017.2 hPa NW 6.4 km/h 11.3 km/h 44 % 0 mm
10:38 22.6 °C 9.7 °C 1017.2 hPa NW 4.8 km/h 11.3 km/h 44 % 0 mm
10:43 22.8 °C 8.5 °C 1017.2 hPa NW 9.7 km/h 11.3 km/h 40 % 0 mm
10:48 22.9 °C 9.3 °C 1017.2 hPa NW 6.4 km/h 11.3 km/h 42 % 0 mm
10:53 23.1 °C 8.4 °C 1017.2 hPa North 3.2 km/h 14.5 km/h 39 % 0 mm
10:58 23.2 °C 7.3 °C 1017.2 hPa West 6.4 km/h 14.5 km/h 36 % 0 mm
11:03 23.1 °C 8.8 °C 1017.2 hPa North 11.3 km/h 14.5 km/h 40 % 0 mm
11:08 23.2 °C 7.3 °C 1017.2 hPa NNW 12.9 km/h 17.7 km/h 36 % 0 mm
11:13 23.1 °C 7.6 °C 1017.2 hPa NNW 6.4 km/h 17.7 km/h 37 % 0 mm
11:18 23.3 °C 8.2 °C 1017.2 hPa North 12.9 km/h 17.7 km/h 38 % 0 mm
11:23 23.3 °C 7.4 °C 1017.2 hPa WNW 4.8 km/h 19.3 km/h 36 % 0 mm
11:28 23.4 °C 7.9 °C 1017.2 hPa NNW 6.4 km/h 19.3 km/h 37 % 0 mm
11:33 23.7 °C 8.5 °C 1017.2 hPa WNW 4.8 km/h 19.3 km/h 38 % 0 mm
11:38 23.8 °C 9 °C 1017.2 hPa NW 14.5 km/h 17.7 km/h 39 % 0 mm
11:43 23.8 °C 9 °C 1017.2 hPa WNW 6.4 km/h 19.3 km/h 39 % 0 mm
11:48 23.7 °C 7.7 °C 1017.2 hPa NNW 9.7 km/h 19.3 km/h 36 % 0 mm
11:53 23.7 °C 8.5 °C 1017.2 hPa NW 11.3 km/h 22.5 km/h 38 % 0 mm
11:58 23.7 °C 8.1 °C 1017.2 hPa NNW 11.3 km/h 22.5 km/h 37 % 0 mm
12:03 24 °C 8 °C 1016.8 hPa WNW 4.8 km/h 22.5 km/h 36 % 0 mm
12:08 24.2 °C 6.9 °C 1017.2 hPa WNW 8 km/h 19.3 km/h 33 % 0 mm
12:13 23.9 °C 7.5 °C 1016.8 hPa WNW 3.2 km/h 20.9 km/h 35 % 0 mm
12:18 24.2 °C 8.2 °C 1016.8 hPa NNW 9.7 km/h 20.9 km/h 36 % 0 mm
12:23 24.2 °C 8.2 °C 1016.8 hPa NNW 11.3 km/h 20.9 km/h 36 % 0 mm
12:28 24.2 °C 7.8 °C 1016.8 hPa NW 11.3 km/h 20.9 km/h 35 % 0 mm
12:33 24.2 °C 8.2 °C 1016.8 hPa West 11.3 km/h 20.9 km/h 36 % 0 mm
12:38 24.3 °C 8.3 °C 1016.8 hPa NW 3.2 km/h 20.9 km/h 36 % 0 mm
12:44 24.3 °C 8.7 °C 1016.5 hPa WSW 4.8 km/h 17.7 km/h 37 % 0 mm
12:49 24.6 °C 8.9 °C 1016.5 hPa NW 6.4 km/h 17.7 km/h 37 % 0 mm
12:54 24.7 °C 9 °C 1016.5 hPa NW 6.4 km/h 17.7 km/h 37 % 0 mm
12:59 24.6 °C 8.1 °C 1016.5 hPa NNW 12.9 km/h 16.1 km/h 35 % 0 mm
13:04 24.6 °C 7.7 °C 1016.1 hPa NW 3.2 km/h 22.5 km/h 34 % 0 mm
13:09 24.8 °C 8.7 °C 1016.1 hPa NW 3.2 km/h 22.5 km/h 36 % 0 mm
13:11 25.1 °C 9 °C 1016.1 hPa WNW 4.8 km/h 22.5 km/h 36 % 0 mm
13:16 25.2 °C 7.8 °C 1016.1 hPa North 11.3 km/h 17.7 km/h 33 % 0 mm
13:21 25.2 °C 8.2 °C 1016.1 hPa NNW 14.5 km/h 19.3 km/h 34 % 0 mm
13:26 25.1 °C 9 °C 1016.1 hPa NNW 8 km/h 24.1 km/h 36 % 0 mm
13:31 25.2 °C 7.3 °C 1016.1 hPa NW 9.7 km/h 24.1 km/h 32 % 0 mm
13:36 25 °C 8 °C 1015.8 hPa NW 11.3 km/h 24.1 km/h 34 % 0 mm
13:41 25 °C 7.2 °C 1015.8 hPa NW 16.1 km/h 22.5 km/h 32 % 0 mm
13:46 25.1 °C 8.1 °C 1015.8 hPa NW 4.8 km/h 22.5 km/h 34 % 0 mm
13:51 25.1 °C 7.7 °C 1015.8 hPa WSW 4.8 km/h 20.9 km/h 33 % 0 mm
13:56 25.2 °C 8.2 °C 1015.5 hPa NW 11.3 km/h 22.5 km/h 34 % 0 mm
14:01 25.6 °C 7.2 °C 1015.5 hPa NW 16.1 km/h 22.5 km/h 31 % 0 mm
14:06 25.2 °C 8.6 °C 1015.5 hPa West 3.2 km/h 22.5 km/h 35 % 0 mm
14:11 25.4 °C 8.4 °C 1015.5 hPa WSW 6.4 km/h 20.9 km/h 34 % 0 mm
14:16 25.6 °C 7.2 °C 1015.5 hPa NNE 4.8 km/h 20.9 km/h 31 % 0 mm
14:21 25.5 °C 7.6 °C 1015.5 hPa NW 11.3 km/h 24.1 km/h 32 % 0 mm
14:26 25.3 °C 7.9 °C 1015.5 hPa West 6.4 km/h 24.1 km/h 33 % 0 mm
14:31 25.3 °C 7.4 °C 1015.1 hPa West 3.2 km/h 24.1 km/h 32 % 0 mm
14:36 25.7 °C 7.3 °C 1015.1 hPa WNW 12.9 km/h 24.1 km/h 31 % 0 mm
14:41 25.9 °C 7.5 °C 1015.1 hPa NNW 8 km/h 17.7 km/h 31 % 0 mm
14:42 25.9 °C 7.9 °C 1015.1 hPa NW 11.3 km/h 17.7 km/h 32 % 0 mm
14:48 25.7 °C 7.3 °C 1015.1 hPa NNW 17.7 km/h 19.3 km/h 31 % 0 mm
14:53 25.9 °C 7.9 °C 1014.8 hPa NW 11.3 km/h 19.3 km/h 32 % 0 mm
14:58 25.8 °C 8.3 °C 1014.8 hPa WNW 3.2 km/h 19.3 km/h 33 % 0 mm
15:03 25.8 °C 7.4 °C 1014.8 hPa NW 6.4 km/h 25.7 km/h 31 % 0 mm
15:08 25.7 °C 8.7 °C 1014.8 hPa WSW 8 km/h 25.7 km/h 34 % 0 mm
15:13 26.3 °C 9.2 °C 1014.4 hPa NW 4.8 km/h 25.7 km/h 34 % 0 mm
15:18 26.3 °C 7.8 °C 1014.4 hPa NW 9.7 km/h 19.3 km/h 31 % 0 mm
15:23 26.3 °C 8.3 °C 1014.4 hPa NW 8 km/h 20.9 km/h 32 % 0 mm
15:28 25.9 °C 8.4 °C 1014.4 hPa NNW 6.4 km/h 22.5 km/h 33 % 0 mm
15:33 26 °C 8 °C 1014.1 hPa NNW 19.3 km/h 22.5 km/h 32 % 0 mm
15:38 26.2 °C 8.2 °C 1014.1 hPa SW 1.6 km/h 22.5 km/h 32 % 0 mm
15:43 26.4 °C 8.4 °C 1014.1 hPa NW 14.5 km/h 19.3 km/h 32 % 0 mm
15:48 26.3 °C 9.2 °C 1014.1 hPa North 8 km/h 19.3 km/h 34 % 0 mm
15:53 26.2 °C 7.7 °C 1014.1 hPa NW 11.3 km/h 22.5 km/h 31 % 0 mm
15:58 26.2 °C 7.7 °C 1013.8 hPa NNW 8 km/h 22.5 km/h 31 % 0 mm
16:03 26.4 °C 7.9 °C 1013.8 hPa WNW 9.7 km/h 22.5 km/h 31 % 0 mm
16:08 26.4 °C 7.9 °C 1013.8 hPa NW 14.5 km/h 19.3 km/h 31 % 0 mm
16:13 26.3 °C 8.3 °C 1013.8 hPa WSW 6.4 km/h 19.3 km/h 32 % 0 mm
16:18 26.1 °C 8.1 °C 1013.8 hPa WNW 4.8 km/h 19.3 km/h 32 % 0 mm
16:23 26.3 °C 8.3 °C 1013.4 hPa West 4.8 km/h 27.4 km/h 32 % 0 mm
16:28 26.6 °C 8.5 °C 1013.1 hPa SW 6.4 km/h 27.4 km/h 32 % 0 mm
16:33 26.8 °C 9.2 °C 1013.4 hPa NW 6.4 km/h 27.4 km/h 33 % 0 mm
16:38 26.7 °C 8.2 °C 1013.4 hPa West 9.7 km/h 19.3 km/h 31 % 0 mm
16:43 26.4 °C 7.9 °C 1013.1 hPa North 4.8 km/h 20.9 km/h 31 % 0 mm
16:48 26.3 °C 7.8 °C 1013.1 hPa North 9.7 km/h 20.9 km/h 31 % 0 mm
16:53 26.2 °C 8.2 °C 1013.1 hPa NW 9.7 km/h 20.9 km/h 32 % 0 mm
16:58 26.1 °C 8.1 °C 1013.1 hPa WNW 16.1 km/h 24.1 km/h 32 % 0 mm
17:03 26.2 °C 8.7 °C 1013.1 hPa North 8 km/h 24.1 km/h 33 % 0 mm
17:08 26.3 °C 8.3 °C 1012.8 hPa NNW 11.3 km/h 24.1 km/h 32 % 0 mm
17:13 26.4 °C 7.9 °C 1013.1 hPa WNW 14.5 km/h 19.3 km/h 31 % 0 mm
17:18 26.3 °C 8.3 °C 1013.1 hPa South 3.2 km/h 19.3 km/h 32 % 0 mm
17:23 26.3 °C 7.8 °C 1012.8 hPa NW 4.8 km/h 24.1 km/h 31 % 0 mm
17:28 26.6 °C 8.5 °C 1012.8 hPa North 11.3 km/h 24.1 km/h 32 % 0 mm
17:33 26.3 °C 8.3 °C 1013.1 hPa NW 4.8 km/h 24.1 km/h 32 % 0 mm
17:38 26.4 °C 8.4 °C 1013.1 hPa WNW 3.2 km/h 19.3 km/h 32 % 0 mm
17:43 26.4 °C 7.4 °C 1013.1 hPa NW 12.9 km/h 19.3 km/h 30 % 0 mm
17:48 26.3 °C 7.3 °C 1013.1 hPa WNW 12.9 km/h 17.7 km/h 30 % 0 mm
17:53 26.3 °C 7.8 °C 1013.1 hPa NW 11.3 km/h 22.5 km/h 31 % 0 mm
17:58 26.3 °C 8.3 °C 1013.1 hPa NW 9.7 km/h 22.5 km/h 32 % 0 mm
18:03 26.2 °C 8.2 °C 1013.1 hPa NW 12.9 km/h 22.5 km/h 32 % 0 mm
18:08 26.1 °C 7.6 °C 1013.1 hPa WNW 6.4 km/h 16.1 km/h 31 % 0 mm
18:13 26 °C 7.6 °C 1013.1 hPa NW 11.3 km/h 17.7 km/h 31 % 0 mm
18:18 26.1 °C 7.6 °C 1013.1 hPa NNW 8 km/h 19.3 km/h 31 % 0 mm
18:19 26.1 °C 7.6 °C 1013.1 hPa NW 14.5 km/h 19.3 km/h 31 % 0 mm
18:24 26.1 °C 7.6 °C 1013.1 hPa NNW 9.7 km/h 19.3 km/h 31 % 0 mm
18:29 25.9 °C 7.5 °C 1013.1 hPa NW 3.2 km/h 19.3 km/h 31 % 0 mm
18:34 26 °C 8 °C 1012.8 hPa NW 4.8 km/h 19.3 km/h 32 % 0 mm
18:39 25.9 °C 8.4 °C 1012.8 hPa NW 4.8 km/h 17.7 km/h 33 % 0 mm
18:44 26 °C 8.5 °C 1012.8 hPa NW 4.8 km/h 14.5 km/h 33 % 0 mm
18:49 25.9 °C 8.4 °C 1013.1 hPa NW 6.4 km/h 14.5 km/h 33 % 0 mm
18:54 25.7 °C 7.8 °C 1012.8 hPa WNW 1.6 km/h 14.5 km/h 32 % 0 mm
18:59 25.8 °C 8.3 °C 1012.8 hPa SW 8 km/h 12.9 km/h 33 % 0 mm
19:04 25.7 °C 8.2 °C 1013.1 hPa North 8 km/h 12.9 km/h 33 % 0 mm
19:09 25.5 °C 8 °C 1013.1 hPa WNW 6.4 km/h 12.9 km/h 33 % 0 mm
19:14 25.2 °C 7.8 °C 1012.8 hPa NW 4.8 km/h 11.3 km/h 33 % 0 mm
19:19 24.9 °C 7.5 °C 1013.1 hPa WNW 6.4 km/h 12.9 km/h 33 % 0 mm
19:24 24.8 °C 7.9 °C 1013.1 hPa NW 9.7 km/h 12.9 km/h 34 % 0 mm
19:29 24.7 °C 8.2 °C 1013.1 hPa NNW 4.8 km/h 12.9 km/h 35 % 0 mm
19:31 24.6 °C 8.5 °C 1013.1 hPa NW 1.6 km/h 12.9 km/h 36 % 0 mm
19:36 24.3 °C 8.7 °C 1013.1 hPa North 3.2 km/h 12.9 km/h 37 % 0 mm
19:41 24.1 °C 8.5 °C 1013.1 hPa NNW 1.6 km/h 11.3 km/h 37 % 0 mm
19:46 23.8 °C 8.6 °C 1013.1 hPa WNW 3.2 km/h 11.3 km/h 38 % 0 mm
19:51 23.7 °C 8.9 °C 1013.1 hPa NNW 3.2 km/h 11.3 km/h 39 % 0 mm
19:56 23.4 °C 8.7 °C 1013.4 hPa North 3.2 km/h 11.3 km/h 39 % 0 mm
20:01 23.2 °C 8.9 °C 1013.4 hPa NW 1.6 km/h 8 km/h 40 % 0 mm
20:06 23.1 °C 8.8 °C 1013.4 hPa Calm   6.4 km/h 40 % 0 mm
20:11 22.9 °C 8.9 °C 1013.8 hPa NNW 1.6 km/h 6.4 km/h 41 % 0 mm
20:16 22.7 °C 8.8 °C 1013.8 hPa Calm   6.4 km/h 41 % 0 mm
20:21 22.5 °C 8.6 °C 1013.8 hPa NNW 1.6 km/h 4.8 km/h 41 % 0 mm
20:26 22.3 °C 8.8 °C 1013.8 hPa Calm   1.6 km/h 42 % 0 mm
20:31 22 °C 8.8 °C 1013.8 hPa Calm   1.6 km/h 43 % 0 mm
20:36 21.8 °C 8.7 °C 1013.8 hPa Calm   1.6 km/h 43 % 0 mm
20:41 21.5 °C 8.7 °C 1013.8 hPa Calm   1.6 km/h 44 % 0 mm
20:46 21.2 °C 8.8 °C 1013.8 hPa Calm   1.6 km/h 45 % 0 mm
20:51 20.9 °C 9.2 °C 1013.8 hPa Calm   1.6 km/h 47 % 0 mm
20:56 20.8 °C 9.1 °C 1013.8 hPa Calm   1.6 km/h 47 % 0 mm
21:01 20.6 °C 9.2 °C 1014.1 hPa Calm   1.6 km/h 48 % 0 mm
21:06 20.3 °C 9.2 °C 1014.1 hPa Calm   1.6 km/h 49 % 0 mm
21:12 20.2 °C 9.4 °C 1014.1 hPa Calm     50 % 0 mm
21:17 20.2 °C 9.7 °C 1014.4 hPa Calm   1.6 km/h 51 % 0 mm
21:22 20.1 °C 9.6 °C 1014.4 hPa Calm   1.6 km/h 51 % 0 mm
21:27 19.8 °C 9.7 °C 1014.4 hPa Calm   1.6 km/h 52 % 0 mm
21:32 19.6 °C 9.8 °C 1014.4 hPa Calm   1.6 km/h 53 % 0 mm
21:37 19.3 °C 9.8 °C 1014.4 hPa Calm     54 % 0 mm
21:42 19.2 °C 10.2 °C 1014.4 hPa Calm     56 % 0 mm
21:47 19.1 °C 9.8 °C 1014.4 hPa Calm     55 % 0 mm
21:52 18.8 °C 9.8 °C 1014.4 hPa Calm     56 % 0 mm
21:57 18.3 °C 9.6 °C 1014.4 hPa Calm     57 % 0 mm
22:02 18.1 °C 9.7 °C 1014.4 hPa Calm     58 % 0 mm
22:07 17.7 °C 9.6 °C 1014.4 hPa Calm     59 % 0 mm
22:12 17.4 °C 9.8 °C 1014.4 hPa Calm     61 % 0 mm
22:17 17.4 °C 10.3 °C 1014.8 hPa Calm     63 % 0 mm
22:22 17.6 °C 10.7 °C 1014.8 hPa Calm     64 % 0 mm
22:27 17.5 °C 10.4 °C 1014.8 hPa Calm     63 % 0 mm
22:32 17.3 °C 10.4 °C 1014.8 hPa Calm     64 % 0 mm
22:37 17.1 °C 10.5 °C 1014.8 hPa Calm     65 % 0 mm
22:42 17 °C 10.6 °C 1014.8 hPa Calm     66 % 0 mm
22:47 16.9 °C 10.5 °C 1014.8 hPa Calm     66 % 0 mm
22:52 16.9 °C 10.5 °C 1014.8 hPa Calm     66 % 0 mm
22:57 16.8 °C 10.6 °C 1014.4 hPa Calm     67 % 0 mm
23:02 16.7 °C 10.5 °C 1014.4 hPa Calm     67 % 0 mm
23:07 16.6 °C 10.7 °C 1014.8 hPa Calm     68 % 0 mm
23:12 16.4 °C 10.5 °C 1014.8 hPa Calm     68 % 0 mm
23:17 16.3 °C 10.6 °C 1014.8 hPa Calm     69 % 0 mm
23:22 16.2 °C 10.3 °C 1014.8 hPa Calm     68 % 0 mm
23:27 15.9 °C 10 °C 1014.8 hPa Calm     68 % 0 mm
23:32 15.6 °C 9.7 °C 1014.8 hPa Calm     68 % 0 mm
23:37 15.4 °C 10 °C 1014.8 hPa Calm     70 % 0 mm
23:42 15.2 °C 9.8 °C 1014.8 hPa Calm     70 % 0 mm
23:47 15 °C 9.8 °C 1014.8 hPa Calm     71 % 0 mm
23:52 14.9 °C 10.1 °C 1014.8 hPa Calm     73 % 0 mm
23:57 14.8 °C 10 °C 1014.8 hPa Calm     73 % 0 mm
Spring, Texas: Villages of Bridgestone
Compliments of Weather Underground - 2.75 mb

Script developed by  Jim McMurry - jmcmurry@mwt.net Adapted for the template by  Wim van der Kuil - Leuven-Template.eu

You find our weather info also at:

UK Metoffice

WeatherCloud

Weather Underground

Mid-South Weather Network

AWEKAS

Citizen Weather Observer Program (CWOP)

HAMweather, WeatherForYou, PWS Weather

Equipment we use:

Weather-station
Davis Vantage Vue

Weather-program
Meteohub

Weather-server
Debian 7.9 x86 (Guest)

Provider
DreamHost

Davis Vantage Vue

Meteohub

Debian 7.9 x86 (Guest)

DreamHost